Time;durP1;ratioP1;P1;durP2;ratioP2;P2;SDS_P1;SDS_P2;PMS_P1;PMS_P2;Temp;Humidity;BMP_temperature;BMP_pressure;BME280_temperature;BME280_humidity;BME280_pressure;Samples;Min_cycle;Max_cycle;Signal;HPM_P1;HPM_P2
2023/08/19 00:02:20;;;;;;;4.63;3.85;;;;;;;;;;5054247;28;20040;-76
2023/08/19 00:04:48;;;;;;;5.55;4.43;;;;;;;;;;5051907;28;20033;-77
2023/08/19 00:07:15;;;;;;;4.57;4.18;;;;;;;;;;5053748;28;20399;-76
2023/08/19 00:09:40;;;;;;;4.25;3.85;;;;;;;;;;5036216;28;20104;-77
2023/08/19 00:12:06;;;;;;;6.82;4.53;;;;;;;;;;5052837;28;20115;-77
2023/08/19 00:14:31;;;;;;;4.30;3.90;;;;;;;;;;5052769;28;20029;-77
2023/08/19 00:16:57;;;;;;;5.22;4.30;;;;;;;;;;5053658;28;20025;-76
2023/08/19 00:19:22;;;;;;;4.70;4.10;;;;;;;;;;5053502;28;20476;-76
2023/08/19 00:21:48;;;;;;;5.05;4.47;;;;;;;;;;5053440;28;20399;-76
2023/08/19 00:24:13;;;;;;;4.68;4.28;;;;;;;;;;5054120;28;20063;-76
2023/08/19 00:26:38;;;;;;;5.82;3.80;;;;;;;;;;5052287;28;20049;-76
2023/08/19 00:29:04;;;;;;;5.55;4.35;;;;;;;;;;5052266;28;20029;-76
2023/08/19 00:31:29;;;;;;;4.35;3.95;;;;;;;;;;5035749;28;20107;-76
2023/08/19 00:33:55;;;;;;;4.85;4.45;;;;;;;;;;5052927;28;20031;-76
2023/08/19 00:36:21;;;;;;;4.65;4.20;;;;;;;;;;5035416;28;20032;-76
2023/08/19 00:38:48;;;;;;;5.22;3.97;;;;;;;;;;5019165;28;20064;-76
2023/08/19 00:41:14;;;;;;;4.88;4.28;;;;;;;;;;5052484;28;20036;-76
2023/08/19 00:43:39;;;;;;;4.90;4.07;;;;;;;;;;5053649;28;20033;-76
2023/08/19 00:46:06;;;;;;;4.50;4.10;;;;;;;;;;5053265;28;20025;-76
2023/08/19 00:48:32;;;;;;;5.00;4.50;;;;;;;;;;5053251;28;20021;-76
2023/08/19 00:50:58;;;;;;;5.47;4.05;;;;;;;;;;5053443;28;20407;-76
2023/08/19 00:53:24;;;;;;;4.60;4.20;;;;;;;;;;5053124;28;20036;-76
2023/08/19 00:55:49;;;;;;;4.82;4.00;;;;;;;;;;5052272;28;20529;-77
2023/08/19 00:58:15;;;;;;;4.60;4.20;;;;;;;;;;5051745;28;20025;-76
2023/08/19 01:00:41;;;;;;;5.95;4.20;;;;;;;;;;5052190;28;20158;-76
2023/08/19 01:03:06;;;;;;;4.78;4.38;;;;;;;;;;5053511;28;20040;-76
2023/08/19 01:05:38;;;;;;;4.40;3.85;;;;;;;;;;5052219;28;20032;-76
2023/08/19 01:08:04;;;;;;;4.57;4.03;;;;;;;;;;5035185;28;20025;-76
2023/08/19 01:10:35;;;;;;;4.63;4.22;;;;;;;;;;5053596;28;20029;-76
2023/08/19 01:13:18;;;;;;;5.00;4.47;;;;;;;;;;5035668;28;20468;-76
2023/08/19 01:15:54;;;;;;;7.63;4.45;;;;;;;;;;5052616;28;20029;-76
2023/08/19 01:18:21;;;;;;;5.85;3.72;;;;;;;;;;5055821;28;20028;-76
2023/08/19 01:20:48;;;;;;;5.93;4.28;;;;;;;;;;5056363;28;20024;-76
2023/08/19 01:23:33;;;;;;;4.32;3.92;;;;;;;;;;5056139;28;20029;-76
2023/08/19 01:25:59;;;;;;;4.75;4.25;;;;;;;;;;5039174;28;20051;-76
2023/08/19 01:28:25;;;;;;;9.15;4.38;;;;;;;;;;5055773;28;20132;-76
2023/08/19 01:30:50;;;;;;;6.05;4.38;;;;;;;;;;5055738;28;20035;-76
2023/08/19 01:33:15;;;;;;;4.45;3.95;;;;;;;;;;5055523;28;20494;-76
2023/08/19 01:35:47;;;;;;;4.65;4.10;;;;;;;;;;5057506;28;20041;-76
2023/08/19 01:38:19;;;;;;;6.20;4.20;;;;;;;;;;5055403;28;20041;-76
2023/08/19 01:40:44;;;;;;;4.75;4.03;;;;;;;;;;5055767;28;20111;-76
2023/08/19 01:43:11;;;;;;;6.00;4.60;;;;;;;;;;5056697;28;20112;-76
2023/08/19 01:45:38;;;;;;;4.80;4.20;;;;;;;;;;5056627;28;20029;-76
2023/08/19 01:48:04;;;;;;;5.60;4.07;;;;;;;;;;5055346;28;20083;-76
2023/08/19 01:50:29;;;;;;;5.35;4.45;;;;;;;;;;5056681;28;20033;-76
2023/08/19 01:52:55;;;;;;;5.28;4.38;;;;;;;;;;5056389;28;20384;-76
2023/08/19 01:55:20;;;;;;;4.40;4.00;;;;;;;;;;5056448;28;20060;-76
2023/08/19 01:57:46;;;;;;;6.50;4.10;;;;;;;;;;5056330;28;20064;-76
2023/08/19 02:00:11;;;;;;;4.45;4.05;;;;;;;;;;5055120;28;20341;-76
2023/08/19 02:02:37;;;;;;;5.93;4.47;;;;;;;;;;5056331;28;20040;-76
2023/08/19 02:05:02;;;;;;;5.90;4.47;;;;;;;;;;5056204;28;20039;-76
2023/08/19 02:07:28;;;;;;;7.00;4.18;;;;;;;;;;5056061;28;20048;-76
2023/08/19 02:09:53;;;;;;;4.78;4.15;;;;;;;;;;5056047;28;20112;-76
2023/08/19 02:12:18;;;;;;;5.28;4.55;;;;;;;;;;5056373;28;20369;-76
2023/08/19 02:14:44;;;;;;;4.53;4.13;;;;;;;;;;5055968;28;20035;-76
2023/08/19 02:17:09;;;;;;;4.45;4.05;;;;;;;;;;5055963;28;20039;-76
2023/08/19 02:19:34;;;;;;;4.50;4.10;;;;;;;;;;5054698;28;20033;-76
2023/08/19 02:22:00;;;;;;;4.80;4.30;;;;;;;;;;5054684;28;20032;-76
2023/08/19 02:24:26;;;;;;;5.55;4.28;;;;;;;;;;5056165;28;20094;-76
2023/08/19 02:26:51;;;;;;;4.93;4.15;;;;;;;;;;5055699;28;20032;-76
2023/08/19 02:29:17;;;;;;;4.10;3.80;;;;;;;;;;5055052;28;20430;-76
2023/08/19 02:31:43;;;;;;;5.78;4.45;;;;;;;;;;5056029;28;20059;-76
2023/08/19 02:34:09;;;;;;;5.03;4.45;;;;;;;;;;5054602;28;20043;-76
2023/08/19 02:36:34;;;;;;;5.10;4.32;;;;;;;;;;5056285;28;20472;-76
2023/08/19 02:38:59;;;;;;;4.88;4.35;;;;;;;;;;5054354;28;20108;-76
2023/08/19 02:41:25;;;;;;;4.53;3.97;;;;;;;;;;5021137;28;20036;-77
2023/08/19 02:43:50;;;;;;;5.25;4.32;;;;;;;;;;5055820;28;20037;-76
2023/08/19 02:46:16;;;;;;;6.65;4.63;;;;;;;;;;5056138;28;20536;-76
2023/08/19 02:48:41;;;;;;;4.57;4.05;;;;;;;;;;5055516;28;20035;-76
2023/08/19 02:51:06;;;;;;;5.38;4.55;;;;;;;;;;5054651;28;20079;-76
2023/08/19 02:53:32;;;;;;;4.90;4.40;;;;;;;;;;5054139;28;20082;-76
2023/08/19 02:55:58;;;;;;;5.95;4.35;;;;;;;;;;5055352;28;20025;-76
2023/08/19 02:58:24;;;;;;;6.05;4.43;;;;;;;;;;5055200;28;20052;-77
2023/08/19 03:00:50;;;;;;;4.40;4.00;;;;;;;;;;5055567;28;20077;-76
2023/08/19 03:03:15;;;;;;;5.00;4.47;;;;;;;;;;5054461;28;20325;-76
2023/08/19 03:05:41;;;;;;;4.60;4.20;;;;;;;;;;5053920;28;20071;-77
2023/08/19 03:08:08;;;;;;;4.88;4.45;;;;;;;;;;5037212;28;20083;-76
2023/08/19 03:10:39;;;;;;;5.28;4.53;;;;;;;;;;5054082;28;20017;-76
2023/08/19 03:13:05;;;;;;;5.10;4.47;;;;;;;;;;5055301;28;20075;-76
2023/08/19 03:15:31;;;;;;;4.78;4.28;;;;;;;;;;5054149;28;20032;-76
2023/08/19 03:17:57;;;;;;;7.57;4.13;;;;;;;;;;5053899;28;20062;-76
2023/08/19 03:20:22;;;;;;;5.05;4.43;;;;;;;;;;5036956;28;20115;-76
2023/08/19 03:22:48;;;;;;;4.60;4.15;;;;;;;;;;5036980;28;20032;-76
2023/08/19 03:25:13;;;;;;;5.20;4.47;;;;;;;;;;5053801;28;20029;-76
2023/08/19 03:27:39;;;;;;;5.53;4.32;;;;;;;;;;5053348;28;20154;-76
2023/08/19 03:30:05;;;;;;;7.13;4.50;;;;;;;;;;5054974;28;20028;-76
2023/08/19 03:32:31;;;;;;;4.72;4.32;;;;;;;;;;5053253;28;20392;-76
2023/08/19 03:34:56;;;;;;;8.55;4.85;;;;;;;;;;5054779;28;20087;-76
2023/08/19 03:37:22;;;;;;;6.15;4.55;;;;;;;;;;5036416;28;20452;-76
2023/08/19 03:39:47;;;;;;;4.55;4.15;;;;;;;;;;5053154;28;20533;-76
2023/08/19 03:42:13;;;;;;;6.30;4.53;;;;;;;;;;5054933;28;20028;-76
2023/08/19 03:44:38;;;;;;;5.05;4.55;;;;;;;;;;5054361;28;20033;-76
2023/08/19 03:47:03;;;;;;;5.20;4.70;;;;;;;;;;5053108;28;20033;-76
2023/08/19 03:49:29;;;;;;;5.43;4.40;;;;;;;;;;5054499;28;20031;-76
2023/08/19 03:51:54;;;;;;;6.30;4.32;;;;;;;;;;5054440;28;20406;-76
2023/08/19 03:54:20;;;;;;;6.25;4.43;;;;;;;;;;5054105;28;20112;-76
2023/08/19 03:56:45;;;;;;;5.13;4.50;;;;;;;;;;5053120;28;20032;-76
2023/08/19 03:59:10;;;;;;;7.28;4.85;;;;;;;;;;5052873;28;20021;-76
2023/08/19 04:01:36;;;;;;;5.05;4.55;;;;;;;;;;5052723;28;20044;-76
2023/08/19 04:04:01;;;;;;;6.03;4.72;;;;;;;;;;5053022;28;20037;-76
2023/08/19 04:06:26;;;;;;;5.88;4.45;;;;;;;;;;5036906;28;20025;-76
2023/08/19 04:08:52;;;;;;;5.50;4.82;;;;;;;;;;5054390;28;20052;-76
2023/08/19 04:11:17;;;;;;;5.53;4.90;;;;;;;;;;5053971;28;20039;-76
2023/08/19 04:13:42;;;;;;;7.53;4.38;;;;;;;;;;5054285;28;20040;-76
2023/08/19 04:16:08;;;;;;;5.97;4.93;;;;;;;;;;5036185;28;20059;-76
2023/08/19 04:18:34;;;;;;;5.00;4.50;;;;;;;;;;5052978;28;20032;-76
2023/08/19 04:21:04;;;;;;;6.68;4.53;;;;;;;;;;5052596;28;20025;-76
2023/08/19 04:23:30;;;;;;;5.47;4.97;;;;;;;;;;5036139;28;20541;-76
2023/08/19 04:25:55;;;;;;;5.60;4.63;;;;;;;;;;5052516;28;20033;-77
2023/08/19 04:28:21;;;;;;;6.82;4.72;;;;;;;;;;5052507;28;20029;-76
2023/08/19 04:30:46;;;;;;;5.82;4.95;;;;;;;;;;5052404;28;20033;-75
2023/08/19 04:33:11;;;;;;;5.68;4.80;;;;;;;;;;5053826;28;20103;-76
2023/08/19 04:35:38;;;;;;;7.38;4.82;;;;;;;;;;5053830;28;20120;-76
2023/08/19 04:38:03;;;;;;;5.15;4.28;;;;;;;;;;5053359;28;20106;-75
2023/08/19 04:40:30;;;;;;;5.88;4.63;;;;;;;;;;5053481;28;20472;-75
2023/08/19 04:42:57;;;;;;;4.95;4.45;;;;;;;;;;5053536;28;20043;-75
2023/08/19 04:45:22;;;;;;;6.63;4.25;;;;;;;;;;5053918;28;20021;-75
2023/08/19 04:47:48;;;;;;;5.20;4.70;;;;;;;;;;5053398;28;20036;-75
2023/08/19 04:50:14;;;;;;;5.82;4.55;;;;;;;;;;5051848;28;20033;-75
2023/08/19 04:52:39;;;;;;;4.85;4.30;;;;;;;;;;5035303;28;20037;-75
2023/08/19 04:55:05;;;;;;;5.00;4.50;;;;;;;;;;5051862;28;20029;-75
2023/08/19 04:57:30;;;;;;;5.55;4.57;;;;;;;;;;5053213;28;20060;-76
2023/08/19 04:59:56;;;;;;;6.07;4.57;;;;;;;;;;5035628;28;20466;-77
2023/08/19 05:02:21;;;;;;;5.43;4.93;;;;;;;;;;5053233;28;20083;-76
2023/08/19 05:04:46;;;;;;;5.88;4.40;;;;;;;;;;5053168;28;20071;-75
2023/08/19 05:07:12;;;;;;;5.43;4.35;;;;;;;;;;5053584;28;20116;-76
2023/08/19 05:09:37;;;;;;;5.22;4.60;;;;;;;;;;5051891;28;20032;-75
2023/08/19 05:12:03;;;;;;;5.57;4.63;;;;;;;;;;5053347;28;20035;-77
2023/08/19 05:14:28;;;;;;;8.35;5.25;;;;;;;;;;5053549;28;20025;-77
2023/08/19 05:16:54;;;;;;;12.55;5.68;;;;;;;;;;5052876;28;20029;-76
2023/08/19 05:19:20;;;;;;;8.50;4.85;;;;;;;;;;5053180;28;20395;-76
2023/08/19 05:21:48;;;;;;;6.15;5.00;;;;;;;;;;5051627;28;20041;-77
2023/08/19 05:24:14;;;;;;;7.78;5.40;;;;;;;;;;5051980;28;20029;-76
2023/08/19 05:26:39;;;;;;;9.02;4.80;;;;;;;;;;5052924;28;20029;-75
2023/08/19 05:29:05;;;;;;;8.20;5.35;;;;;;;;;;5035014;28;20499;-76
2023/08/19 05:31:30;;;;;;;8.18;5.05;;;;;;;;;;5051607;28;20057;-76
2023/08/19 05:33:56;;;;;;;8.55;5.40;;;;;;;;;;5051894;28;20036;-76
2023/08/19 05:36:21;;;;;;;11.27;5.80;;;;;;;;;;5053524;28;20377;-77
2023/08/19 05:38:46;;;;;;;7.32;5.38;;;;;;;;;;5052605;28;20045;-76
2023/08/19 05:41:12;;;;;;;10.57;5.43;;;;;;;;;;5052992;28;20044;-74
2023/08/19 05:43:37;;;;;;;10.70;5.13;;;;;;;;;;5051701;28;20468;-75
2023/08/19 05:46:05;;;;;;;9.85;5.63;;;;;;;;;;5018564;28;20399;-76
2023/08/19 05:48:31;;;;;;;9.27;5.82;;;;;;;;;;5051867;28;20457;-76
2023/08/19 05:50:56;;;;;;;8.82;6.00;;;;;;;;;;5051551;28;20048;-76
2023/08/19 05:53:21;;;;;;;9.93;5.88;;;;;;;;;;5052683;28;20045;-76
2023/08/19 05:55:47;;;;;;;9.55;5.53;;;;;;;;;;5052714;28;20112;-76
2023/08/19 05:58:13;;;;;;;13.68;5.82;;;;;;;;;;5035065;28;20040;-76
2023/08/19 06:00:39;;;;;;;9.30;5.45;;;;;;;;;;5053356;28;20468;-76
2023/08/19 06:03:04;;;;;;;10.55;5.45;;;;;;;;;;5053962;28;20032;-76
2023/08/19 06:05:29;;;;;;;7.35;5.30;;;;;;;;;;5056490;28;20112;-76
2023/08/19 06:07:55;;;;;;;7.75;5.15;;;;;;;;;;5038543;28;20036;-76
2023/08/19 06:10:20;;;;;;;7.93;5.07;;;;;;;;;;5056908;28;20036;-76
2023/08/19 06:12:46;;;;;;;6.15;4.80;;;;;;;;;;5056528;28;20079;-76
2023/08/19 06:15:11;;;;;;;8.18;5.40;;;;;;;;;;5038398;28;20131;-77
2023/08/19 06:17:36;;;;;;;7.82;4.93;;;;;;;;;;5056081;28;20115;-77
2023/08/19 06:20:02;;;;;;;9.98;5.30;;;;;;;;;;5055380;28;20166;-77
2023/08/19 06:22:27;;;;;;;7.30;5.10;;;;;;;;;;5055252;28;20036;-77
2023/08/19 06:24:53;;;;;;;6.88;5.20;;;;;;;;;;5038486;28;20479;-77
2023/08/19 06:27:18;;;;;;;9.82;5.13;;;;;;;;;;5038501;28;20033;-77
2023/08/19 06:29:44;;;;;;;8.30;4.45;;;;;;;;;;5055997;28;20119;-77
2023/08/19 06:32:10;;;;;;;8.88;4.82;;;;;;;;;;5054902;28;20396;-77
2023/08/19 06:34:35;;;;;;;5.15;4.38;;;;;;;;;;5038049;28;20028;-78
2023/08/19 06:37:03;;;;;;;5.03;4.40;;;;;;;;;;5054646;28;20040;-78
2023/08/19 06:39:30;;;;;;;6.03;4.63;;;;;;;;;;5054572;28;20091;-77
2023/08/19 06:42:01;;;;;;;7.25;4.20;;;;;;;;;;5054600;28;20480;-78
2023/08/19 06:44:28;;;;;;;7.47;4.28;;;;;;;;;;5056145;28;20056;-78
2023/08/19 06:46:55;;;;;;;8.73;4.50;;;;;;;;;;5038649;28;20017;-78
2023/08/19 06:49:20;;;;;;;9.30;4.38;;;;;;;;;;5056027;28;20028;-78
2023/08/19 06:51:46;;;;;;;5.68;4.10;;;;;;;;;;5054270;28;20427;-78
2023/08/19 06:54:12;;;;;;;5.68;4.18;;;;;;;;;;5037668;28;20031;-79
2023/08/19 06:56:43;;;;;;;6.10;4.00;;;;;;;;;;5037612;28;20391;-78
2023/08/19 06:59:18;;;;;;;5.22;4.28;;;;;;;;;;5055483;28;20474;-78
2023/08/19 07:01:49;;;;;;;9.77;5.45;;;;;;;;;;5054154;28;20444;-78
2023/08/19 07:04:15;;;;;;;13.45;6.30;;;;;;;;;;5055520;28;20104;-78
2023/08/19 07:06:40;;;;;;;12.18;5.60;;;;;;;;;;5037769;28;20120;-78
2023/08/19 07:09:06;;;;;;;9.15;5.40;;;;;;;;;;5054229;28;20112;-78
2023/08/19 07:11:32;;;;;;;7.53;4.72;;;;;;;;;;5054065;28;20032;-78
2023/08/19 07:13:58;;;;;;;7.45;4.50;;;;;;;;;;5053691;28;20092;-78
2023/08/19 07:16:24;;;;;;;11.35;5.78;;;;;;;;;;5055074;28;20024;-78
2023/08/19 07:18:53;;;;;;;9.00;5.40;;;;;;;;;;5054144;28;20033;-78
2023/08/19 07:21:20;;;;;;;11.25;5.72;;;;;;;;;;5055511;28;20391;-78
2023/08/19 07:23:47;;;;;;;8.32;5.00;;;;;;;;;;5053871;28;20025;-78
2023/08/19 07:26:12;;;;;;;6.55;4.70;;;;;;;;;;5053927;28;20025;-78
2023/08/19 07:28:38;;;;;;;10.25;4.45;;;;;;;;;;5053620;28;20040;-78
2023/08/19 07:31:04;;;;;;;6.53;4.40;;;;;;;;;;5054032;28;20056;-78
2023/08/19 07:33:29;;;;;;;7.70;5.05;;;;;;;;;;5054924;28;20037;-77
2023/08/19 07:35:55;;;;;;;11.85;4.80;;;;;;;;;;5054078;28;20032;-78
2023/08/19 07:38:20;;;;;;;6.95;4.07;;;;;;;;;;5055863;28;20075;-78
2023/08/19 07:40:46;;;;;;;5.85;4.78;;;;;;;;;;5056831;28;20120;-77
2023/08/19 07:43:11;;;;;;;6.93;4.15;;;;;;;;;;5060518;28;20060;-78
2023/08/19 07:45:37;;;;;;;7.15;4.30;;;;;;;;;;5059687;28;20045;-79
2023/08/19 07:48:02;;;;;;;8.40;4.60;;;;;;;;;;5057827;28;20025;-78
2023/08/19 07:50:28;;;;;;;5.72;4.28;;;;;;;;;;5055236;28;20504;-78
2023/08/19 07:52:53;;;;;;;5.20;3.97;;;;;;;;;;5037617;28;20059;-78
2023/08/19 07:55:19;;;;;;;7.63;4.88;;;;;;;;;;5038796;28;20480;-78
2023/08/19 07:57:44;;;;;;;10.07;4.50;;;;;;;;;;5057299;28;20037;-78
2023/08/19 08:00:10;;;;;;;5.85;4.07;;;;;;;;;;5060645;28;20029;-78
2023/08/19 08:02:35;;;;;;;5.88;4.05;;;;;;;;;;5039194;28;20025;-79
2023/08/19 08:05:02;;;;;;;5.50;3.78;;;;;;;;;;5054442;28;20460;-79
2023/08/19 08:07:27;;;;;;;7.45;4.10;;;;;;;;;;5054824;28;20063;-79
2023/08/19 08:09:53;;;;;;;7.43;3.85;;;;;;;;;;5054400;28;20056;-79
2023/08/19 08:12:18;;;;;;;7.28;3.80;;;;;;;;;;5053229;28;20566;-79
2023/08/19 08:14:44;;;;;;;6.57;3.90;;;;;;;;;;5054596;28;20032;-79
2023/08/19 08:17:09;;;;;;;8.70;4.28;;;;;;;;;;5052947;28;20063;-79
2023/08/19 08:19:35;;;;;;;6.75;4.20;;;;;;;;;;5054096;28;20025;-79
2023/08/19 08:22:01;;;;;;;6.03;4.22;;;;;;;;;;5054407;28;20534;-78
2023/08/19 08:24:27;;;;;;;6.30;3.67;;;;;;;;;;5036394;28;20025;-79
2023/08/19 08:26:52;;;;;;;4.90;3.60;;;;;;;;;;5052750;28;20032;-79
2023/08/19 08:29:18;;;;;;;6.68;3.88;;;;;;;;;;5053196;28;20380;-79
2023/08/19 08:31:43;;;;;;;5.50;3.75;;;;;;;;;;5053341;28;20037;-79
2023/08/19 08:34:09;;;;;;;6.78;3.80;;;;;;;;;;5054208;28;20401;-79
2023/08/19 08:36:34;;;;;;;6.70;4.05;;;;;;;;;;5054615;28;20497;-79
2023/08/19 08:38:59;;;;;;;5.10;4.00;;;;;;;;;;5053804;28;20041;-79
2023/08/19 08:41:25;;;;;;;7.28;3.63;;;;;;;;;;5052758;28;20041;-79
2023/08/19 08:43:52;;;;;;;5.20;3.70;;;;;;;;;;5054021;28;20029;-82
2023/08/19 08:46:21;;;;;;;7.22;3.90;;;;;;;;;;5036347;28;20025;-81
2023/08/19 08:48:47;;;;;;;4.70;3.55;;;;;;;;;;5053459;28;20059;-83
2023/08/19 08:51:13;;;;;;;5.65;3.63;;;;;;;;;;5036984;28;20033;-84
2023/08/19 08:53:38;;;;;;;3.95;3.55;;;;;;;;;;5053004;28;20032;-84
2023/08/19 08:56:05;;;;;;;8.63;3.47;;;;;;;;;;5053807;28;20472;-83
2023/08/19 08:58:31;;;;;;;5.38;3.10;;;;;;;;;;5053862;28;20026;-83
2023/08/19 09:00:58;;;;;;;5.00;3.33;;;;;;;;;;5052851;28;20029;-82
2023/08/19 09:03:25;;;;;;;11.70;4.00;;;;;;;;;;5036495;28;20055;-82
2023/08/19 09:05:52;;;;;;;3.90;3.28;;;;;;;;;;5055072;28;20154;-81
2023/08/19 09:08:25;;;;;;;6.03;3.80;;;;;;;;;;5054656;28;20025;-83
2023/08/19 09:10:50;;;;;;;8.20;3.65;;;;;;;;;;5052946;28;20028;-84
2023/08/19 09:13:21;;;;;;;4.70;3.40;;;;;;;;;;5036076;28;20036;-81
2023/08/19 09:15:49;;;;;;;4.35;3.50;;;;;;;;;;5053816;28;20379;-84
2023/08/19 09:18:16;;;;;;;5.57;3.67;;;;;;;;;;5037803;28;20044;-86
2023/08/19 09:20:44;;;;;;;5.05;3.67;;;;;;;;;;5055711;28;20028;-84
2023/08/19 09:23:09;;;;;;;7.68;3.83;;;;;;;;;;5054633;28;20026;-83
2023/08/19 09:25:37;;;;;;;6.60;3.95;;;;;;;;;;5053208;28;20036;-83
2023/08/19 09:28:03;;;;;;;5.38;3.90;;;;;;;;;;5053536;28;20024;-82
2023/08/19 09:30:33;;;;;;;3.58;3.28;;;;;;;;;;5053908;28;20029;-83
2023/08/19 09:33:01;;;;;;;5.28;3.78;;;;;;;;;;5053828;28;20025;-86
2023/08/19 09:35:38;;;;;;;6.45;3.85;;;;;;;;;;5054493;28;20036;-84
2023/08/19 09:38:04;;;;;;;4.53;3.30;;;;;;;;;;5056428;28;20124;-83
2023/08/19 09:40:31;;;;;;;6.75;4.00;;;;;;;;;;5039239;28;20424;-83
2023/08/19 09:42:58;;;;;;;3.70;3.40;;;;;;;;;;5056735;28;20059;-82
2023/08/19 09:45:25;;;;;;;5.75;3.40;;;;;;;;;;5058294;28;20036;-81
2023/08/19 09:47:52;;;;;;;4.18;3.50;;;;;;;;;;5056073;28;20021;-82
2023/08/19 09:50:22;;;;;;;4.70;3.65;;;;;;;;;;5055531;28;20119;-83
2023/08/19 09:52:59;;;;;;;4.25;3.85;;;;;;;;;;5055640;28;20474;-84
2023/08/19 09:55:29;;;;;;;4.13;3.63;;;;;;;;;;5055823;28;20417;-84
2023/08/19 09:57:55;;;;;;;5.22;4.10;;;;;;;;;;5056962;28;20036;-84
2023/08/19 10:00:21;;;;;;;6.50;3.70;;;;;;;;;;5038866;28;20040;-84
2023/08/19 10:02:46;;;;;;;7.90;3.80;;;;;;;;;;5040701;28;20029;-84
2023/08/19 10:05:12;;;;;;;6.30;3.50;;;;;;;;;;5057526;28;20094;-84
2023/08/19 10:07:40;;;;;;;5.40;3.88;;;;;;;;;;5038552;28;20044;-84
2023/08/19 10:10:06;;;;;;;4.72;3.95;;;;;;;;;;5055207;28;20079;-83
2023/08/19 10:12:40;;;;;;;4.82;3.60;;;;;;;;;;5055783;28;20029;-83
2023/08/19 10:15:07;;;;;;;;;;;;;;;;;;5055844;28;20032;-83
2023/08/19 10:17:33;;;;;;;8.65;4.85;;;;;;;;;;5040713;28;20486;-83
2023/08/19 10:20:05;;;;;;;5.63;4.35;;;;;;;;;;5055457;28;20040;-83
2023/08/19 10:22:32;;;;;;;10.30;4.65;;;;;;;;;;5055323;28;20029;-83
2023/08/19 10:24:57;;;;;;;9.20;4.75;;;;;;;;;;5038417;28;20033;-82
2023/08/19 10:27:23;;;;;;;6.35;4.45;;;;;;;;;;5055024;28;20517;-83
2023/08/19 10:29:56;;;;;;;7.65;4.65;;;;;;;;;;5038538;28;20036;-84
2023/08/19 10:32:28;;;;;;;7.00;4.53;;;;;;;;;;5057228;28;20025;-84
2023/08/19 10:35:20;;;;;;;4.45;3.97;;;;;;;;;;5057056;28;20033;-84
2023/08/19 10:37:50;;;;;;;6.50;4.20;;;;;;;;;;5051817;28;20048;-84
2023/08/19 10:40:25;;;;;;;6.60;4.60;;;;;;;;;;5055654;28;20463;-83
2023/08/19 10:42:58;;;;;;;6.18;3.95;;;;;;;;;;5055228;28;20112;-84
2023/08/19 10:45:30;;;;;;;6.63;4.30;;;;;;;;;;5038371;28;20119;-86
2023/08/19 10:47:55;;;;;;;7.15;4.15;;;;;;;;;;5038425;28;20029;-85
2023/08/19 10:50:21;;;;;;;6.25;4.20;;;;;;;;;;5037661;28;20052;-84
2023/08/19 10:53:19;;;;;;;6.10;4.00;;;;;;;;;;5056033;28;20043;-84
2023/08/19 10:55:55;;;;;;;5.57;3.92;;;;;;;;;;5055404;28;20052;-84
2023/08/19 10:58:21;;;;;;;5.03;4.47;;;;;;;;;;5054516;28;20021;-84
2023/08/19 11:00:48;;;;;;;7.95;4.15;;;;;;;;;;5055729;28;20040;-84
2023/08/19 11:03:13;;;;;;;8.55;4.65;;;;;;;;;;5054548;28;20064;-84
2023/08/19 11:05:49;;;;;;;4.70;4.20;;;;;;;;;;5054280;28;20068;-84
2023/08/19 11:08:15;;;;;;;6.15;4.63;;;;;;;;;;5055598;28;20033;-84
2023/08/19 11:10:44;;;;;;;5.00;4.35;;;;;;;;;;5037785;28;20029;-83
2023/08/19 11:13:10;;;;;;;4.90;4.40;;;;;;;;;;5054106;28;20029;-82
2023/08/19 11:15:36;;;;;;;4.93;4.40;;;;;;;;;;5054324;28;20028;-83
2023/08/19 11:18:02;;;;;;;4.65;4.10;;;;;;;;;;5053881;28;20021;-83
2023/08/19 11:20:30;;;;;;;5.00;4.10;;;;;;;;;;5053794;28;20040;-84
2023/08/19 11:22:56;;;;;;;5.57;4.53;;;;;;;;;;5053951;28;20068;-82
2023/08/19 11:25:22;;;;;;;5.25;4.15;;;;;;;;;;5037499;28;20017;-82
2023/08/19 11:27:48;;;;;;;5.35;3.85;;;;;;;;;;5037490;28;20021;-82
2023/08/19 11:30:18;;;;;;;4.53;3.97;;;;;;;;;;5037689;28;20033;-82
2023/08/19 11:32:47;;;;;;;5.05;4.10;;;;;;;;;;5054338;28;20162;-82
2023/08/19 11:35:12;;;;;;;4.15;3.72;;;;;;;;;;5037336;28;20451;-82
2023/08/19 11:37:40;;;;;;;4.47;3.63;;;;;;;;;;5055322;28;20068;-83
2023/08/19 11:40:06;;;;;;;4.30;3.88;;;;;;;;;;5055460;28;20472;-82
2023/08/19 11:42:31;;;;;;;6.10;3.58;;;;;;;;;;5054983;28;20042;-82
2023/08/19 11:44:56;;;;;;;3.97;3.58;;;;;;;;;;5053381;28;20533;-82
2023/08/19 11:47:22;;;;;;;3.90;3.58;;;;;;;;;;5036835;28;20033;-81
2023/08/19 11:49:47;;;;;;;5.88;3.47;;;;;;;;;;5036844;28;20117;-82
2023/08/19 11:52:20;;;;;;;5.53;3.80;;;;;;;;;;5054503;28;20119;-83
2023/08/19 11:55:03;;;;;;;3.43;3.13;;;;;;;;;;5036506;28;20029;-82
2023/08/19 11:57:35;;;;;;;3.73;3.20;;;;;;;;;;5053152;28;20031;-83
2023/08/19 12:00:01;;;;;;;4.03;3.63;;;;;;;;;;5052869;28;20252;-83
2023/08/19 12:02:26;;;;;;;4.28;3.28;;;;;;;;;;5054079;28;20029;-83
2023/08/19 12:04:53;;;;;;;3.97;3.30;;;;;;;;;;5036417;28;20041;-83
2023/08/19 12:07:25;;;;;;;3.83;3.20;;;;;;;;;;5052980;28;20506;-83
2023/08/19 12:09:51;;;;;;;4.57;3.03;;;;;;;;;;5036386;28;20021;-81
2023/08/19 12:12:17;;;;;;;3.65;3.30;;;;;;;;;;5053704;28;20083;-81
2023/08/19 12:14:43;;;;;;;5.18;3.40;;;;;;;;;;5053014;28;20487;-81
2023/08/19 12:17:08;;;;;;;3.70;3.38;;;;;;;;;;5053769;28;20051;-81
2023/08/19 12:19:36;;;;;;;4.53;3.10;;;;;;;;;;5054550;28;20029;-81
2023/08/19 12:22:03;;;;;;;4.88;3.00;;;;;;;;;;5054725;28;20036;-81
2023/08/19 12:24:29;;;;;;;3.50;3.08;;;;;;;;;;5054518;28;20391;-81
2023/08/19 12:26:54;;;;;;;5.55;3.17;;;;;;;;;;5053561;28;20033;-82
2023/08/19 12:29:19;;;;;;;4.28;3.20;;;;;;;;;;5020936;28;20052;-82
2023/08/19 12:31:45;;;;;;;4.15;2.70;;;;;;;;;;5054475;28;20051;-82
2023/08/19 12:34:11;;;;;;;4.65;2.90;;;;;;;;;;5054439;28;20025;-81
2023/08/19 12:36:37;;;;;;;4.97;2.80;;;;;;;;;;5036471;28;20043;-81
2023/08/19 12:39:04;;;;;;;3.53;3.00;;;;;;;;;;5052789;28;20136;-83
2023/08/19 12:41:30;;;;;;;5.05;3.03;;;;;;;;;;5054485;28;20087;-82
2023/08/19 12:43:55;;;;;;;3.58;2.70;;;;;;;;;;5054007;28;20112;-82
2023/08/19 12:46:21;;;;;;;3.10;2.65;;;;;;;;;;5052722;28;20108;-82
2023/08/19 12:48:46;;;;;;;3.35;2.80;;;;;;;;;;5053967;28;20025;-82
2023/08/19 12:51:13;;;;;;;3.80;2.70;;;;;;;;;;5019782;28;20029;-82
2023/08/19 12:53:41;;;;;;;3.78;2.92;;;;;;;;;;5054442;28;20075;-82
2023/08/19 12:56:07;;;;;;;3.33;2.80;;;;;;;;;;5036717;28;20056;-82
2023/08/19 12:58:33;;;;;;;4.38;2.90;;;;;;;;;;5036142;28;20033;-82
2023/08/19 13:00:59;;;;;;;3.28;2.97;;;;;;;;;;5036447;28;20450;-82
2023/08/19 13:03:24;;;;;;;2.97;2.67;;;;;;;;;;5052458;28;20037;-82
2023/08/19 13:05:49;;;;;;;3.28;2.80;;;;;;;;;;5052845;28;20025;-83
2023/08/19 13:08:15;;;;;;;4.03;3.17;;;;;;;;;;5052739;28;20036;-82
2023/08/19 13:10:40;;;;;;;4.65;3.00;;;;;;;;;;5052386;28;20060;-81
2023/08/19 13:13:06;;;;;;;4.72;2.88;;;;;;;;;;5052920;28;20124;-81
2023/08/19 13:15:32;;;;;;;3.63;2.78;;;;;;;;;;5052712;28;20033;-81
2023/08/19 13:17:57;;;;;;;3.72;3.03;;;;;;;;;;5035752;28;20029;-81
2023/08/19 13:20:25;;;;;;;5.10;2.88;;;;;;;;;;5052282;28;20037;-81
2023/08/19 13:22:50;;;;;;;4.43;3.17;;;;;;;;;;5053192;28;20024;-81
2023/08/19 13:25:16;;;;;;;4.55;3.22;;;;;;;;;;5051956;28;20035;-81
2023/08/19 13:27:42;;;;;;;3.45;2.90;;;;;;;;;;5035755;28;20033;-81
2023/08/19 13:30:08;;;;;;;3.63;2.85;;;;;;;;;;5053675;28;20033;-81
2023/08/19 13:32:33;;;;;;;4.00;2.72;;;;;;;;;;5054870;28;20089;-82
2023/08/19 13:34:58;;;;;;;3.60;2.67;;;;;;;;;;5054441;28;20025;-82
2023/08/19 13:37:24;;;;;;;5.90;2.92;;;;;;;;;;5054011;28;20040;-86
2023/08/19 13:39:49;;;;;;;3.92;2.80;;;;;;;;;;5052132;28;20495;-84
2023/08/19 13:42:15;;;;;;;3.15;2.42;;;;;;;;;;5053874;28;20170;-85
2023/08/19 13:44:40;;;;;;;4.25;2.70;;;;;;;;;;5053912;28;20115;-85
2023/08/19 13:47:06;;;;;;;3.47;2.60;;;;;;;;;;5054059;28;20025;-85
2023/08/19 13:49:31;;;;;;;3.85;2.38;;;;;;;;;;5052953;28;20393;-84
2023/08/19 13:51:56;;;;;;;3.90;2.90;;;;;;;;;;5053657;28;20112;-84
2023/08/19 13:54:22;;;;;;;3.38;2.40;;;;;;;;;;5055322;28;20029;-84
2023/08/19 13:56:51;;;;;;;4.63;2.60;;;;;;;;;;5056314;28;20056;-84
2023/08/19 13:59:17;;;;;;;2.92;2.10;;;;;;;;;;5023111;28;20025;-83
2023/08/19 14:01:42;;;;;;;4.07;2.30;;;;;;;;;;5047131;28;20473;-85
2023/08/19 14:04:08;;;;;;;3.53;1.92;;;;;;;;;;5039076;28;20383;-84
2023/08/19 14:06:34;;;;;;;2.75;2.00;;;;;;;;;;5056028;28;20024;-85
2023/08/19 14:08:59;;;;;;;3.45;2.15;;;;;;;;;;5055700;28;20032;-85
2023/08/19 14:11:25;;;;;;;3.95;2.00;;;;;;;;;;5039834;28;20033;-84
2023/08/19 14:13:51;;;;;;;2.83;1.88;;;;;;;;;;5060285;28;20492;-85
2023/08/19 14:16:17;;;;;;;3.55;2.20;;;;;;;;;;5053623;28;20087;-84
2023/08/19 14:18:43;;;;;;;2.58;1.85;;;;;;;;;;5052667;28;20025;-85
2023/08/19 14:21:08;;;;;;;2.50;2.00;;;;;;;;;;5052037;28;20025;-85
2023/08/19 14:23:36;;;;;;;3.30;1.80;;;;;;;;;;5052141;28;20035;-84
2023/08/19 14:26:02;;;;;;;2.33;1.60;;;;;;;;;;5055264;28;20086;-84
2023/08/19 14:28:28;;;;;;;2.97;1.80;;;;;;;;;;5055127;28;20100;-84
2023/08/19 14:30:53;;;;;;;3.67;1.70;;;;;;;;;;5021861;28;20069;-84
2023/08/19 14:33:18;;;;;;;2.17;1.67;;;;;;;;;;5056077;28;20028;-84
2023/08/19 14:35:45;;;;;;;2.35;1.80;;;;;;;;;;5055446;28;20095;-84
2023/08/19 14:38:10;;;;;;;1.83;1.40;;;;;;;;;;5054844;28;20025;-84
2023/08/19 14:40:35;;;;;;;3.05;2.15;;;;;;;;;;5056140;28;20403;-84